Ocean Outback — 9V8072 — position and weather

sailwx.info

Track history (hours):
 
Tides and Currents Weather Stations Pressure Air Temp Water Temp Dewpoint Dewpoint Depression Visibility Wind Speed Wind Dir Waves Ship Positions

Ocean Outback

Last reported at 2016-Jun-11 04:04 UTC. Time now 2016-Jun-30 17:45 UTC.
Position N 01°16' E 104°08'.
Warning: this ship's position is 19 days out of date.

Length 136 m; draft 6.4 m.

Type: Ship. MMSI: 563745000.

Date/timePositionNaut miles runAvg speedWind from/ knotsBaromVisibWave heightAir tempDewpointWater temp
2016-Jun-11 04:04N 01°16' E 104°08'916.8
2016-Jun-11 03:33N 01°14' E 103°59'10 9.6
2016-Jun-11 02:33N 01°13' E 103°50'0 0.0
2016-Jun-11 01:33N 01°13' E 103°50'0 0.0
2016-Jun-11 00:33N 01°13' E 103°50'0 0.0
2016-Jun-10 23:32N 01°13' E 103°50'0 0.0
2016-Jun-10 22:33N 01°13' E 103°50'0 0.0
2016-Jun-10 21:33N 01°13' E 103°50'0 0.0
2016-Jun-10 20:33N 01°13' E 103°50'0 0.1
2016-Jun-10 19:33N 01°13' E 103°50'7 7.5
2016-Jun-10 18:33N 01°14' E 103°57'13 5.4
2016-Jun-10 16:09N 01°16' E 104°10'1016.5
2016-Jun-10 15:33N 01°14' E 104°00'10 9.2
2016-Jun-10 14:29N 01°11' E 103°51'2 2.3
2016-Jun-10 13:25N 01°13' E 103°49'0 0.1
2016-Jun-10 12:25N 01°13' E 103°49'2 1.9
2016-Jun-10 11:33N 01°13' E 103°51'4 3.2
2016-Jun-10 10:27N 01°16' E 103°52'0 0.0
2016-Jun-10 09:33N 01°16' E 103°52'0 0.0
2016-Jun-10 08:33N 01°16' E 103°52'0 0.0
2016-Jun-10 07:33N 01°16' E 103°52'0 0.0
2016-Jun-10 06:33N 01°16' E 103°52'0 0.1
2016-Jun-10 05:33N 01°16' E 103°52'0 0.1
2016-Jun-10 04:33N 01°16' E 103°52'0 0.1
2016-Jun-10 03:27N 01°16' E 103°52'0 0.0
2016-Jun-10 02:33N 01°16' E 103°52'0 0.0
2016-Jun-10 01:33N 01°16' E 103°52'0 0.0
2016-Jun-10 00:33N 01°16' E 103°52'0 0.0
2016-Jun-09 23:33N 01°16' E 103°52'0 0.0
2016-Jun-09 22:33N 01°16' E 103°52'0 0.0
2016-Jun-09 20:27N 01°16' E 103°52'0 0.0
2016-Jun-09 19:33N 01°16' E 103°52'0 0.0
2016-Jun-09 18:33N 01°16' E 103°52'0 0.0
2016-Jun-09 17:30N 01°16' E 103°52'0 0.1
2016-Jun-09 16:33N 01°16' E 103°52'0 0.0
2016-Jun-09 15:33N 01°16' E 103°52'0 0.0
2016-Jun-09 14:33N 01°16' E 103°52'0 0.0
2016-Jun-09 13:33N 01°16' E 103°52'0 0.0
2016-Jun-09 12:24N 01°16' E 103°52'0 0.0
2016-Jun-09 11:33N 01°16' E 103°52'0 0.0
2016-Jun-09 10:33N 01°16' E 103°52'0 0.0
2016-Jun-09 09:33N 01°16' E 103°52'0 0.0
2016-Jun-09 08:33N 01°16' E 103°52'0 0.0
2016-Jun-09 07:30N 01°16' E 103°52'0 0.0
2016-Jun-09 06:33N 01°16' E 103°52'0 0.0
2016-Jun-09 05:33N 01°16' E 103°52'0 0.1
2016-Jun-09 04:30N 01°16' E 103°52'0 0.1
2016-Jun-09 03:30N 01°16' E 103°52'0 0.1
2016-Jun-09 02:27N 01°16' E 103°52'0 0.0
2016-Jun-09 01:33N 01°16' E 103°52'0 0.0
2016-Jun-09 00:15N 01°16' E 103°52'0 0.0
2016-Jun-08 23:15N 01°16' E 103°52'0 0.0
2016-Jun-08 22:09N 01°16' E 103°52'0 0.0
2016-Jun-08 21:33N 01°16' E 103°52'0 0.0
2016-Jun-08 20:33N 01°16' E 103°52'0 0.0
2016-Jun-08 19:18N 01°16' E 103°52'0 0.0
2016-Jun-08 18:33N 01°16' E 103°52'0 0.0
2016-Jun-08 17:27N 01°16' E 103°52'0 0.0
2016-Jun-08 16:24N 01°16' E 103°52'0 0.1
2016-Jun-08 15:21N 01°16' E 103°52'0 0.0
2016-Jun-08 14:33N 01°16' E 103°52'0 0.0
2016-Jun-08 13:18N 01°16' E 103°52'0 0.0
2016-Jun-08 12:33N 01°16' E 103°52'0 0.0
2016-Jun-08 11:33N 01°16' E 103°52'0 0.0
2016-Jun-08 10:33N 01°16' E 103°52'0 0.0
2016-Jun-08 09:33N 01°16' E 103°52'0 0.0
2016-Jun-08 08:33N 01°16' E 103°52'0 0.0
2016-Jun-08 07:33N 01°16' E 103°52'0 0.0
2016-Jun-08 06:27N 01°16' E 103°52'0 0.0
2016-Jun-08 05:33N 01°16' E 103°52'0 0.0
2016-Jun-08 04:33N 01°16' E 103°52'0 0.0
2016-Jun-08 03:33N 01°16' E 103°52'0 0.1
2016-Jun-08 02:33N 01°16' E 103°52'0 0.1
2016-Jun-08 01:33N 01°16' E 103°52'0 0.0
2016-Jun-08 00:33N 01°16' E 103°52'0 0.0
2016-Jun-07 23:33N 01°16' E 103°52'0 0.0
2016-Jun-07 22:33N 01°16' E 103°52'0 0.0
2016-Jun-07 21:33N 01°16' E 103°52'0 0.0
2016-Jun-07 20:32N 01°16' E 103°52'0 0.0
2016-Jun-07 19:33N 01°16' E 103°52'0 0.0
2016-Jun-07 18:33N 01°16' E 103°52'0 0.0
2016-Jun-07 17:33N 01°16' E 103°52'0 0.0
2016-Jun-07 16:31N 01°16' E 103°52'0 0.1
2016-Jun-07 15:33N 01°16' E 103°52'0 0.0
2016-Jun-07 14:33N 01°16' E 103°52'0 0.1
2016-Jun-07 13:33N 01°16' E 103°52'0 0.1
2016-Jun-07 12:33N 01°16' E 103°52'0 0.0
2016-Jun-07 11:33N 01°16' E 103°52'0 0.0
2016-Jun-07 10:33N 01°16' E 103°52'0 0.1
2016-Jun-07 09:33N 01°16' E 103°52'4 4.0
2016-Jun-07 08:33N 01°13' E 103°49'1 0.5
2016-Jun-07 07:33N 01°13' E 103°49'9 9.0
2016-Jun-07 06:33N 01°15' E 103°58'  
Track history (hours):
 
Tides and Currents Weather Stations Pressure Air Temp Water Temp Dewpoint Dewpoint Depression Visibility Wind Speed Wind Dir Waves Ship Positions

Ocean Outback

Last reported at 2016-Jun-11 04:04 UTC. Time now 2016-Jun-30 17:45 UTC.
Position N 01°16' E 104°08'.
Warning: this ship's position is 19 days out of date.

Length 136 m; draft 6.4 m.

Type: Ship. MMSI: 563745000.

Date/timePositionNaut miles runAvg speedWind from/ knotsBaromVisibWave heightAir tempDewpointWater temp
2016-Jun-11 04:04N 01°16' E 104°08'916.8
2016-Jun-11 03:33N 01°14' E 103°59'10 9.6
2016-Jun-11 02:33N 01°13' E 103°50'0 0.0
2016-Jun-11 01:33N 01°13' E 103°50'0 0.0
2016-Jun-11 00:33N 01°13' E 103°50'0 0.0
2016-Jun-10 23:32N 01°13' E 103°50'0 0.0
2016-Jun-10 22:33N 01°13' E 103°50'0 0.0
2016-Jun-10 21:33N 01°13' E 103°50'0 0.0
2016-Jun-10 20:33N 01°13' E 103°50'0 0.1
2016-Jun-10 19:33N 01°13' E 103°50'7 7.5
2016-Jun-10 18:33N 01°14' E 103°57'13 5.4
2016-Jun-10 16:09N 01°16' E 104°10'1016.5
2016-Jun-10 15:33N 01°14' E 104°00'10 9.2
2016-Jun-10 14:29N 01°11' E 103°51'2 2.3
2016-Jun-10 13:25N 01°13' E 103°49'0 0.1
2016-Jun-10 12:25N 01°13' E 103°49'2 1.9
2016-Jun-10 11:33N 01°13' E 103°51'4 3.2
2016-Jun-10 10:27N 01°16' E 103°52'0 0.0
2016-Jun-10 09:33N 01°16' E 103°52'0 0.0
2016-Jun-10 08:33N 01°16' E 103°52'0 0.0
2016-Jun-10 07:33N 01°16' E 103°52'0 0.0
2016-Jun-10 06:33N 01°16' E 103°52'0 0.1
2016-Jun-10 05:33N 01°16' E 103°52'0 0.1
2016-Jun-10 04:33N 01°16' E 103°52'0 0.1
2016-Jun-10 03:27N 01°16' E 103°52'0 0.0
2016-Jun-10 02:33N 01°16' E 103°52'0 0.0
2016-Jun-10 01:33N 01°16' E 103°52'0 0.0
2016-Jun-10 00:33N 01°16' E 103°52'0 0.0
2016-Jun-09 23:33N 01°16' E 103°52'0 0.0
2016-Jun-09 22:33N 01°16' E 103°52'0 0.0
2016-Jun-09 20:27N 01°16' E 103°52'0 0.0
2016-Jun-09 19:33N 01°16' E 103°52'0 0.0
2016-Jun-09 18:33N 01°16' E 103°52'0 0.0
2016-Jun-09 17:30N 01°16' E 103°52'0 0.1
2016-Jun-09 16:33N 01°16' E 103°52'0 0.0
2016-Jun-09 15:33N 01°16' E 103°52'0 0.0
2016-Jun-09 14:33N 01°16' E 103°52'0 0.0
2016-Jun-09 13:33N 01°16' E 103°52'0 0.0
2016-Jun-09 12:24N 01°16' E 103°52'0 0.0
2016-Jun-09 11:33N 01°16' E 103°52'0 0.0
2016-Jun-09 10:33N 01°16' E 103°52'0 0.0
2016-Jun-09 09:33N 01°16' E 103°52'0 0.0
2016-Jun-09 08:33N 01°16' E 103°52'0 0.0
2016-Jun-09 07:30N 01°16' E 103°52'0 0.0
2016-Jun-09 06:33N 01°16' E 103°52'0 0.0
2016-Jun-09 05:33N 01°16' E 103°52'0 0.1
2016-Jun-09 04:30N 01°16' E 103°52'0 0.1
2016-Jun-09 03:30N 01°16' E 103°52'0 0.1
2016-Jun-09 02:27N 01°16' E 103°52'0 0.0
2016-Jun-09 01:33N 01°16' E 103°52'0 0.0
2016-Jun-09 00:15N 01°16' E 103°52'0 0.0
2016-Jun-08 23:15N 01°16' E 103°52'0 0.0
2016-Jun-08 22:09N 01°16' E 103°52'0 0.0
2016-Jun-08 21:33N 01°16' E 103°52'0 0.0
2016-Jun-08 20:33N 01°16' E 103°52'0 0.0
2016-Jun-08 19:18N 01°16' E 103°52'0 0.0
2016-Jun-08 18:33N 01°16' E 103°52'0 0.0
2016-Jun-08 17:27N 01°16' E 103°52'0 0.0
2016-Jun-08 16:24N 01°16' E 103°52'0 0.1
2016-Jun-08 15:21N 01°16' E 103°52'0 0.0
2016-Jun-08 14:33N 01°16' E 103°52'0 0.0
2016-Jun-08 13:18N 01°16' E 103°52'0 0.0
2016-Jun-08 12:33N 01°16' E 103°52'0 0.0
2016-Jun-08 11:33N 01°16' E 103°52'0 0.0
2016-Jun-08 10:33N 01°16' E 103°52'0 0.0
2016-Jun-08 09:33N 01°16' E 103°52'0 0.0
2016-Jun-08 08:33N 01°16' E 103°52'0 0.0
2016-Jun-08 07:33N 01°16' E 103°52'0 0.0
2016-Jun-08 06:27N 01°16' E 103°52'0 0.0
2016-Jun-08 05:33N 01°16' E 103°52'0 0.0
2016-Jun-08 04:33N 01°16' E 103°52'0 0.0
2016-Jun-08 03:33N 01°16' E 103°52'0 0.1
2016-Jun-08 02:33N 01°16' E 103°52'0 0.1
2016-Jun-08 01:33N 01°16' E 103°52'0 0.0
2016-Jun-08 00:33N 01°16' E 103°52'0 0.0
2016-Jun-07 23:33N 01°16' E 103°52'0 0.0
2016-Jun-07 22:33N 01°16' E 103°52'0 0.0
2016-Jun-07 21:33N 01°16' E 103°52'0 0.0
2016-Jun-07 20:32N 01°16' E 103°52'0 0.0
2016-Jun-07 19:33N 01°16' E 103°52'0 0.0
2016-Jun-07 18:33N 01°16' E 103°52'0 0.0
2016-Jun-07 17:33N 01°16' E 103°52'0 0.0
2016-Jun-07 16:31N 01°16' E 103°52'0 0.1
2016-Jun-07 15:33N 01°16' E 103°52'0 0.0
2016-Jun-07 14:33N 01°16' E 103°52'0 0.1
2016-Jun-07 13:33N 01°16' E 103°52'0 0.1
2016-Jun-07 12:33N 01°16' E 103°52'0 0.0
2016-Jun-07 11:33N 01°16' E 103°52'0 0.0
2016-Jun-07 10:33N 01°16' E 103°52'0 0.1
2016-Jun-07 09:33N 01°16' E 103°52'4 4.0
2016-Jun-07 08:33N 01°13' E 103°49'1 0.5
2016-Jun-07 07:33N 01°13' E 103°49'9 9.0
2016-Jun-07 06:33N 01°15' E 103°58'  

Dump ship's entire track history